Time;durP1;ratioP1;P1;durP2;ratioP2;P2;SDS_P1;SDS_P2;PMS_P1;PMS_P2;Temp;Humidity;BMP_temperature;BMP_pressure;BME280_temperature;BME280_humidity;BME280_pressure;Samples;Min_cycle;Max_cycle;Signal;HPM_P1;HPM_P2
2022/11/01 00:01:44;;;;;;;8.38;2.58;;;12.80;99.90;;;;;;5045413;28;20314;-76
2022/11/01 00:04:10;;;;;;;3.35;1.50;;;12.70;99.90;;;;;;5044116;28;20037;-75
2022/11/01 00:06:36;;;;;;;2.20;1.55;;;12.70;99.90;;;;;;5045481;28;20022;-76
2022/11/01 00:09:03;;;;;;;12.70;1.17;;;12.70;99.90;;;;;;5044926;28;20053;-78
2022/11/01 00:11:28;;;;;;;2.20;1.85;;;12.70;99.90;;;;;;5045752;28;20096;-75
2022/11/01 00:13:54;;;;;;;8.40;2.80;;;12.70;99.90;;;;;;5045230;28;20046;-76
2022/11/01 00:16:20;;;;;;;7.13;2.08;;;12.10;99.90;;;;;;5048365;28;20041;-76
2022/11/01 00:18:46;;;;;;;5.15;2.78;;;12.70;99.90;;;;;;5048908;28;20036;-74
2022/11/01 00:21:13;;;;;;;3.10;1.83;;;12.80;99.90;;;;;;5047587;28;20049;-76
2022/11/01 00:23:39;;;;;;;1.33;1.23;;;12.70;99.90;;;;;;5049546;28;20042;-75
2022/11/01 00:26:06;;;;;;;0.70;0.68;;;12.80;99.90;;;;;;5049200;28;20032;-76
2022/11/01 00:28:32;;;;;;;7.32;1.02;;;12.70;99.90;;;;;;5048075;28;20059;-76
2022/11/01 00:30:58;;;;;;;2.45;1.95;;;12.70;99.90;;;;;;5049562;28;20065;-74
2022/11/01 00:33:25;;;;;;;0.93;0.73;;;12.80;99.90;;;;;;5048961;28;20058;-76
2022/11/01 00:35:51;;;;;;;1.13;0.88;;;12.70;99.90;;;;;;5049829;28;20051;-76
2022/11/01 00:38:17;;;;;;;2.38;1.70;;;12.70;99.90;;;;;;5048196;28;20053;-75
2022/11/01 00:40:44;;;;;;;0.38;0.35;;;12.70;99.90;;;;;;5048507;28;20034;-76
2022/11/01 00:43:10;;;;;;;1.15;1.02;;;12.80;99.90;;;;;;5047466;28;20046;-76
2022/11/01 00:45:36;;;;;;;0.90;0.85;;;12.80;99.90;;;;;;5049270;28;20037;-76
2022/11/01 00:48:01;;;;;;;4.25;1.63;;;12.80;99.90;;;;;;5047849;28;20097;-74
2022/11/01 00:50:27;;;;;;;1.52;1.42;;;12.80;99.90;;;;;;5049254;28;20281;-75
2022/11/01 00:52:53;;;;;;;1.90;1.13;;;12.90;99.90;;;;;;5048295;28;20049;-75
2022/11/01 00:55:18;;;;;;;1.25;1.05;;;12.90;99.90;;;;;;5048968;28;20050;-76
2022/11/01 00:57:44;;;;;;;0.63;0.63;;;12.90;99.90;;;;;;5048383;28;20051;-76
2022/11/01 01:00:12;;;;;;;10.68;3.17;;;13.00;78.60;;;;;;5048758;28;20041;-76
2022/11/01 01:02:37;;;;;;;2.42;1.55;;;13.10;12.70;;;;;;5047505;28;20084;-76
2022/11/01 01:05:04;;;;;;;1.75;1.58;;;13.20;1.00;;;;;;5048063;28;20059;-76
2022/11/01 01:07:30;;;;;;;4.65;2.65;;;13.20;1.00;;;;;;5049145;28;20041;-76
2022/11/01 01:09:56;;;;;;;0.35;0.30;;;13.20;1.00;;;;;;5048795;28;20053;-76
2022/11/01 01:12:21;;;;;;;0.20;0.20;;;13.20;1.00;;;;;;5046614;28;20045;-76
2022/11/01 01:14:47;;;;;;;1.25;1.15;;;13.20;1.00;;;;;;5047366;28;20026;-75
2022/11/01 01:17:13;;;;;;;4.55;1.13;;;13.10;1.00;;;;;;5047923;28;20041;-75
2022/11/01 01:19:39;;;;;;;9.63;1.70;;;13.20;1.00;;;;;;5047302;28;20041;-76
2022/11/01 01:22:05;;;;;;;1.15;1.05;;;13.30;99.90;;;;;;5048068;28;20045;-76
2022/11/01 01:24:31;;;;;;;1.70;1.50;;;13.30;1.00;;;;;;5047684;28;20057;-76
2022/11/01 01:26:57;;;;;;;3.00;1.13;;;13.40;99.90;;;;;;5047250;28;20075;-76
2022/11/01 01:29:22;;;;;;;1.67;1.35;;;13.40;99.90;;;;;;5048337;28;20037;-76
2022/11/01 01:31:49;;;;;;;2.50;1.95;;;13.50;99.90;;;;;;5047997;28;20029;-75
2022/11/01 01:34:16;;;;;;;5.38;1.00;;;13.50;99.90;;;;;;5046656;28;20329;-75
2022/11/01 01:36:42;;;;;;;1.45;1.20;;;13.60;99.90;;;;;;5047840;28;20033;-76
2022/11/01 01:39:08;;;;;;;2.55;1.70;;;13.70;99.90;;;;;;5047078;28;20113;-75
2022/11/01 01:44:46;;;;;;;0.60;0.45;;;13.70;99.90;;;;;;5047096;28;20044;-76
2022/11/01 01:47:20;;;;;;;0.15;0.10;;;13.70;99.90;;;;;;5047065;28;20045;-76
2022/11/01 01:49:48;;;;;;;1.20;1.00;;;13.70;99.90;;;;;;5046651;28;20126;-76
2022/11/01 01:52:14;;;;;;;0.35;0.35;;;13.80;99.90;;;;;;5047050;28;20109;-75
2022/11/01 01:54:40;;;;;;;0.75;0.60;;;13.90;99.90;;;;;;5047373;28;20077;-77
2022/11/01 01:57:08;;;;;;;0.93;0.68;;;13.90;99.90;;;;;;5047299;28;20049;-76
2022/11/01 01:59:35;;;;;;;0.55;0.55;;;14.00;99.90;;;;;;5045757;28;20053;-75
2022/11/01 02:02:01;;;;;;;0.05;0.05;;;14.10;99.90;;;;;;5046148;28;20065;-76
2022/11/01 02:04:32;;;;;;;3.03;1.02;;;14.10;99.90;;;;;;5045724;28;20052;-77
2022/11/01 02:06:59;;;;;;;0.35;0.30;;;14.20;1.00;;;;;;5046756;28;20041;-76
2022/11/01 02:09:25;;;;;;;0.65;0.63;;;14.10;99.90;;;;;;5045913;28;20430;-76
2022/11/01 02:11:51;;;;;;;3.28;1.83;;;14.20;1.00;;;;;;5047050;28;20042;-76
2022/11/01 02:14:19;;;;;;;1.52;0.85;;;14.20;1.00;;;;;;5046858;28;20049;-75
2022/11/01 02:17:16;;;;;;;3.55;0.35;;;14.40;1.00;;;;;;5046152;28;20167;-76
2022/11/01 02:19:54;;;;;;;;;;;14.30;99.90;;;;;;5047517;28;20033;-76
2022/11/01 02:22:50;;;;;;;0.75;0.55;;;14.30;1.00;;;;;;5046258;28;19952;-74
2022/11/01 02:25:54;;;;;;;0.60;0.50;;;14.20;1.00;;;;;;5046908;28;20043;-76
2022/11/01 02:28:55;;;;;;;0.77;0.75;;;14.40;99.90;;;;;;5046722;28;20295;-76
2022/11/01 02:31:41;;;;;;;0.90;0.75;;;14.30;1.00;;;;;;5044638;28;20041;-76
2022/11/01 02:34:18;;;;;;;2.03;1.73;;;14.20;1.00;;;;;;5045873;28;20109;-76
2022/11/01 02:36:47;;;;;;;1.10;0.75;;;14.20;1.00;;;;;;5046949;28;20113;-76
2022/11/01 02:39:29;;;;;;;0.65;0.57;;;14.20;1.00;;;;;;5045565;28;20037;-75
2022/11/01 02:42:07;;;;;;;1.65;1.45;;;14.40;1.00;;;;;;5045902;28;20049;-76
2022/11/01 02:44:38;;;;;;;1.48;0.93;;;14.40;99.90;;;;;;5027745;28;20030;-76
2022/11/01 02:47:05;;;;;;;0.90;0.70;;;14.50;99.90;;;;;;5025836;28;20285;-75
2022/11/01 02:49:37;;;;;;;0.80;0.30;;;14.50;99.90;;;;;;5043353;28;20060;-76
2022/11/01 02:52:05;;;;;;;0.43;0.40;;;14.50;99.90;;;;;;5045472;28;20044;-76
2022/11/01 02:54:36;;;;;;;0.22;0.22;;;14.50;99.90;;;;;;5044388;28;20072;-75
2022/11/01 02:57:31;;;;;;;1.27;1.13;;;14.40;99.90;;;;;;5045483;28;20055;-76
2022/11/01 03:00:03;;;;;;;5.65;1.17;;;14.50;99.90;;;;;;5133752;22;20558;-78
2022/11/01 03:02:43;;;;;;;0.35;0.32;;;14.60;99.90;;;;;;5066870;28;20060;-79
2022/11/01 03:05:36;;;;;;;0.47;0.47;;;14.60;99.90;;;;;;5069430;28;20084;-79
2022/11/01 03:08:06;;;;;;;1.45;0.80;;;14.50;99.90;;;;;;5071027;28;20044;-79
2022/11/01 03:10:44;;;;;;;3.50;0.95;;;14.40;99.90;;;;;;5068255;28;20044;-79
2022/11/01 03:13:21;;;;;;;0.63;0.63;;;14.60;99.90;;;;;;5069950;28;20485;-79
2022/11/01 03:15:55;;;;;;;2.33;1.40;;;14.60;99.90;;;;;;5070224;28;20045;-78
2022/11/01 03:18:46;;;;;;;0.55;0.55;;;14.60;99.90;;;;;;5069258;28;20049;-80
2022/11/01 03:21:19;;;;;;;0.52;0.38;;;14.70;99.90;;;;;;5050457;28;20056;-78
2022/11/01 03:24:16;;;;;;;0.47;0.40;;;14.70;99.90;;;;;;5064446;28;20651;-79
2022/11/01 03:26:48;;;;;;;0.40;0.35;;;14.80;99.90;;;;;;5063178;28;20056;-78
2022/11/01 03:29:15;;;;;;;1.25;0.60;;;14.80;99.90;;;;;;5067691;28;20119;-79
2022/11/01 03:31:42;;;;;;;0.75;0.75;;;14.90;99.90;;;;;;5067810;28;20072;-80
2022/11/01 03:34:13;;;;;;;0.75;0.68;;;15.00;64.10;;;;;;5069415;28;20091;-79
2022/11/01 03:36:45;;;;;;;0.20;0.20;;;15.00;92.90;;;;;;5069635;28;20044;-80
2022/11/01 03:39:16;;;;;;;0.85;0.45;;;15.40;99.90;;;;;;5068190;28;20507;-79
2022/11/01 03:41:46;;;;;;;27.65;2.25;;;15.00;99.90;;;;;;5058110;28;20131;-79
2022/11/01 03:44:13;;;;;;;1.08;0.95;;;15.10;99.90;;;;;;5065996;28;20036;-79
2022/11/01 03:46:41;;;;;;;1.55;0.43;;;15.20;70.60;;;;;;5048974;28;20512;-79
2022/11/01 03:49:06;;;;;;;0.73;0.63;;;15.10;99.90;;;;;;5050096;28;20049;-79
2022/11/01 03:51:32;;;;;;;1.67;0.30;;;15.10;99.90;;;;;;5051726;28;20044;-77
2022/11/01 03:53:57;;;;;;;0.55;0.55;;;15.10;99.90;;;;;;5053159;28;20033;-79
2022/11/01 03:56:23;;;;;;;2.35;1.50;;;15.10;99.90;;;;;;5053369;28;20056;-79
2022/11/01 03:58:49;;;;;;;1.25;0.98;;;15.10;99.90;;;;;;5062626;28;20128;-79
2022/11/01 04:01:16;;;;;;;2.50;1.58;;;15.10;99.90;;;;;;5055277;28;20147;-79
2022/11/01 04:03:42;;;;;;;1.45;0.32;;;15.30;99.90;;;;;;5051468;28;20060;-79
2022/11/01 04:06:08;;;;;;;0.00;0.00;;;15.30;99.90;;;;;;5054746;28;20370;-79
2022/11/01 04:08:35;;;;;;;1.85;0.98;;;14.90;1.00;;;;;;5051756;28;20471;-82
2022/11/01 04:11:02;;;;;;;0.45;0.35;;;14.80;1.00;;;;;;5058042;28;20072;-79
2022/11/01 04:13:27;;;;;;;5.25;1.65;;;14.70;42.50;;;;;;5062042;28;20122;-79
2022/11/01 04:20:31;;;;;;;0.47;0.30;;;14.70;99.90;;;;;;5071690;28;20045;-79
2022/11/01 04:21:39;;;;;;;0.15;0.15;;;14.60;99.90;;;;;;5070832;28;20033;-78
2022/11/01 04:24:05;;;;;;;0.55;0.50;;;14.50;99.90;;;;;;5071527;28;20049;-79
2022/11/01 04:26:31;;;;;;;6.75;0.82;;;14.50;99.90;;;;;;5070634;28;20029;-79
2022/11/01 04:28:57;;;;;;;0.43;0.28;;;14.50;99.90;;;;;;5060652;28;20056;-77
2022/11/01 04:31:29;;;;;;;1.55;1.15;;;14.60;99.90;;;;;;5052263;28;20056;-79
2022/11/01 04:33:56;;;;;;;2.40;0.55;;;14.70;99.90;;;;;;5033735;28;20057;-79
2022/11/01 04:36:22;;;;;;;0.43;0.38;;;14.70;99.90;;;;;;5051933;28;20053;-79
2022/11/01 04:38:56;;;;;;;1.48;0.95;;;14.80;99.90;;;;;;5052005;28;20045;-79
2022/11/01 04:41:23;;;;;;;0.90;0.63;;;14.80;99.90;;;;;;5051704;28;20053;-79
2022/11/01 04:43:52;;;;;;;0.65;0.45;;;14.90;1.00;;;;;;5051003;28;20037;-79
2022/11/01 04:46:18;;;;;;;0.70;0.52;;;14.80;1.00;;;;;;5051114;28;20049;-79
2022/11/01 04:48:43;;;;;;;1.40;0.98;;;14.90;1.00;;;;;;5051043;28;20067;-77
2022/11/01 04:51:09;;;;;;;0.08;0.08;;;15.30;1.00;;;;;;5051619;28;20045;-78
2022/11/01 04:53:35;;;;;;;0.85;0.75;;;14.80;1.00;;;;;;5051242;28;20396;-79
2022/11/01 04:56:02;;;;;;;0.57;0.28;;;14.80;5.50;;;;;;5051180;28;20041;-77
2022/11/01 04:58:28;;;;;;;2.00;0.52;;;14.80;64.30;;;;;;5050775;28;20045;-78
2022/11/01 05:00:54;;;;;;;1.95;1.17;;;14.90;51.80;;;;;;5051351;28;20474;-78
2022/11/01 05:03:20;;;;;;;0.20;0.20;;;14.90;53.70;;;;;;5050785;28;20102;-80
2022/11/01 05:05:46;;;;;;;2.60;0.75;;;15.00;48.80;;;;;;5058316;28;20100;-78
2022/11/01 05:08:13;;;;;;;0.35;0.35;;;15.10;16.90;;;;;;5057772;28;20053;-77
2022/11/01 05:10:43;;;;;;;0.43;0.28;;;15.10;20.10;;;;;;5053136;28;20138;-78
2022/11/01 05:13:10;;;;;;;0.43;0.43;;;15.20;6.10;;;;;;5050441;28;20052;-76
2022/11/01 05:15:36;;;;;;;0.40;0.40;;;15.20;1.00;;;;;;5050830;28;20049;-79
2022/11/01 05:18:02;;;;;;;0.13;0.10;;;15.10;7.50;;;;;;5059164;28;20049;-79
2022/11/01 05:20:29;;;;;;;0.20;0.20;;;15.10;34.70;;;;;;5058660;28;20401;-78
2022/11/01 05:22:59;;;;;;;0.25;0.25;;;15.00;76.10;;;;;;5058461;28;20045;-78
2022/11/01 05:25:25;;;;;;;0.52;0.30;;;14.90;99.90;;;;;;5059203;28;20067;-79
2022/11/01 05:27:51;;;;;;;1.80;0.65;;;15.00;99.90;;;;;;5058005;28;20037;-77
2022/11/01 05:30:17;;;;;;;1.15;0.43;;;15.10;99.90;;;;;;5054343;28;20199;-77
2022/11/01 05:32:42;;;;;;;3.22;1.30;;;15.00;99.90;;;;;;5033586;28;20049;-78
2022/11/01 05:35:08;;;;;;;0.20;0.20;;;15.20;99.90;;;;;;5050678;28;20049;-77
2022/11/01 05:37:35;;;;;;;0.40;0.30;;;15.20;99.90;;;;;;5048400;28;20145;-77
2022/11/01 05:40:02;;;;;;;0.52;0.47;;;15.10;99.90;;;;;;5048839;28;20087;-78
2022/11/01 05:42:27;;;;;;;0.17;0.17;;;15.20;99.90;;;;;;5049110;28;20053;-79
2022/11/01 05:44:55;;;;;;;1.80;1.13;;;15.30;49.80;;;;;;5049913;28;20044;-79
2022/11/01 05:47:20;;;;;;;0.38;0.30;;;15.80;5.40;;;;;;5050294;28;20048;-80
2022/11/01 05:49:46;;;;;;;18.05;0.63;;;15.30;20.50;;;;;;5032219;28;20053;-77
2022/11/01 05:52:12;;;;;;;0.88;0.30;;;15.40;1.00;;;;;;5031745;28;20048;-77
2022/11/01 05:54:37;;;;;;;0.65;0.55;;;15.50;1.00;;;;;;5056268;28;20063;-79
2022/11/01 05:57:04;;;;;;;0.85;0.77;;;15.60;1.00;;;;;;5040426;28;20053;-78
2022/11/01 05:59:30;;;;;;;0.50;0.47;;;15.80;1.00;;;;;;5047933;28;20041;-79
2022/11/01 06:01:56;;;;;;;0.45;0.22;;;15.70;99.90;;;;;;5049097;28;20075;-80
2022/11/01 06:04:22;;;;;;;0.32;0.32;;;15.70;99.90;;;;;;5049038;28;20068;-79
2022/11/01 06:06:47;;;;;;;3.60;1.58;;;15.70;99.90;;;;;;5049487;28;20076;-79
2022/11/01 06:09:13;;;;;;;0.28;0.28;;;15.70;97.40;;;;;;5049665;28;20496;-78
2022/11/01 06:11:39;;;;;;;6.22;0.88;;;15.60;1.00;;;;;;5048852;28;20049;-79
2022/11/01 06:14:04;;;;;;;0.20;0.10;;;15.90;99.90;;;;;;5032232;28;20045;-80
2022/11/01 06:16:30;;;;;;;0.10;0.00;;;15.30;45.90;;;;;;5010563;28;20092;-78
2022/11/01 06:18:56;;;;;;;0.00;0.00;;;15.30;1.00;;;;;;5029523;28;20104;-77
2022/11/01 06:21:21;;;;;;;0.20;0.20;;;15.10;53.80;;;;;;5029111;28;20060;-79
2022/11/01 06:23:51;;;;;;;0.30;0.28;;;15.00;99.90;;;;;;5029486;28;20056;-79
2022/11/01 06:26:17;;;;;;;0.00;0.00;;;15.40;1.00;;;;;;5029173;28;20045;-77
2022/11/01 06:28:44;;;;;;;0.15;0.15;;;15.10;99.90;;;;;;5028735;28;20297;-78
2022/11/01 06:31:10;;;;;;;0.15;0.15;;;15.00;99.90;;;;;;5011868;28;20047;-80
2022/11/01 06:33:36;;;;;;;0.00;0.00;;;15.00;99.90;;;;;;5028726;28;20049;-79
2022/11/01 06:36:02;;;;;;;0.20;0.20;;;14.80;99.90;;;;;;5027376;28;20124;-78
2022/11/01 06:38:28;;;;;;;0.10;0.05;;;14.60;68.60;;;;;;5030246;28;20089;-78
2022/11/01 06:40:54;;;;;;;2.17;0.28;;;15.10;1.00;;;;;;5029112;28;20045;-79
2022/11/01 06:43:20;;;;;;;0.52;0.52;;;14.30;54.90;;;;;;5028806;28;20053;-78
2022/11/01 06:45:45;;;;;;;0.00;0.00;;;14.20;86.00;;;;;;5028032;28;20104;-78
2022/11/01 06:48:11;;;;;;;0.45;0.30;;;14.10;1.00;;;;;;5039057;28;20051;-81
2022/11/01 06:50:37;;;;;;;0.00;0.00;;;14.10;99.90;;;;;;5051396;28;20052;-80
2022/11/01 06:53:02;;;;;;;0.10;0.10;;;14.00;99.90;;;;;;5062827;28;20040;-80
2022/11/01 06:55:29;;;;;;;0.20;0.20;;;13.90;99.90;;;;;;5065920;28;20073;-78
2022/11/01 06:57:59;;;;;;;0.60;0.32;;;13.90;99.90;;;;;;5062753;28;20109;-78
2022/11/01 07:00:27;;;;;;;0.00;0.00;;;13.90;99.90;;;;;;5053873;28;20486;-80
2022/11/01 07:03:03;;;;;;;0.00;0.00;;;13.70;99.90;;;;;;5053059;28;20045;-79
2022/11/01 07:05:29;;;;;;;0.00;0.00;;;13.60;99.90;;;;;;5048047;28;20434;-79
2022/11/01 07:07:55;;;;;;;0.88;0.77;;;13.50;99.90;;;;;;5048319;28;20491;-79
2022/11/01 07:10:21;;;;;;;0.85;0.47;;;13.50;99.90;;;;;;5049140;28;20048;-79
2022/11/01 07:12:47;;;;;;;0.28;0.22;;;13.40;99.90;;;;;;5047352;28;20461;-80
2022/11/01 07:15:12;;;;;;;0.65;0.52;;;13.30;99.90;;;;;;5047455;28;20041;-78
2022/11/01 07:17:38;;;;;;;0.30;0.30;;;13.40;99.90;;;;;;5035832;28;20493;-78
2022/11/01 07:20:04;;;;;;;0.03;0.03;;;13.40;99.90;;;;;;5019463;28;20491;-79
2022/11/01 07:22:30;;;;;;;0.00;0.00;;;13.40;99.90;;;;;;5032799;28;20702;-79
2022/11/01 07:24:55;;;;;;;0.25;0.25;;;13.60;99.90;;;;;;5035234;28;20492;-80
2022/11/01 07:27:21;;;;;;;0.45;0.38;;;13.50;99.90;;;;;;5041019;28;20037;-78
2022/11/01 07:29:47;;;;;;;0.00;0.00;;;13.50;99.90;;;;;;5045478;28;20041;-79
2022/11/01 07:32:12;;;;;;;0.38;0.38;;;13.60;99.90;;;;;;5047135;28;20040;-80
2022/11/01 07:34:38;;;;;;;0.00;0.00;;;13.70;99.90;;;;;;5048699;28;20041;-78
2022/11/01 07:37:04;;;;;;;2.47;0.52;;;14.00;99.90;;;;;;5048838;28;20041;-79
2022/11/01 07:39:30;;;;;;;0.13;0.08;;;13.80;99.90;;;;;;5049162;28;20132;-79
2022/11/01 07:41:57;;;;;;;0.43;0.35;;;13.80;99.90;;;;;;5048225;28;20044;-81
2022/11/01 07:44:23;;;;;;;0.00;0.00;;;14.20;99.90;;;;;;5048507;28;20076;-78
2022/11/01 07:46:49;;;;;;;0.80;0.60;;;14.20;99.90;;;;;;5049512;28;20072;-80
2022/11/01 07:49:14;;;;;;;0.32;0.32;;;14.20;99.90;;;;;;5048791;28;20052;-80
2022/11/01 07:51:40;;;;;;;0.03;0.03;;;14.30;99.90;;;;;;5046739;28;20049;-81
2022/11/01 07:54:05;;;;;;;0.10;0.10;;;14.40;99.90;;;;;;5047613;28;20100;-79
2022/11/01 07:56:31;;;;;;;0.00;0.00;;;14.60;99.90;;;;;;5048440;28;20048;-79
2022/11/01 07:58:57;;;;;;;0.15;0.10;;;14.50;99.90;;;;;;5047586;28;20418;-79
2022/11/01 08:01:22;;;;;;;0.00;0.00;;;14.50;99.90;;;;;;5047328;28;20056;-78
2022/11/01 08:03:48;;;;;;;0.57;0.45;;;14.50;99.90;;;;;;5047572;28;20049;-78
2022/11/01 08:06:14;;;;;;;3.50;0.93;;;14.60;99.90;;;;;;5048356;28;20814;-79
2022/11/01 08:08:40;;;;;;;0.00;0.00;;;14.80;99.90;;;;;;5050388;28;20053;-81
2022/11/01 08:11:05;;;;;;;12.30;0.35;;;14.80;99.90;;;;;;5058787;28;20041;-80
2022/11/01 08:13:31;;;;;;;0.00;0.00;;;14.90;99.90;;;;;;5057652;28;20061;-79
2022/11/01 08:16:01;;;;;;;0.25;0.25;;;14.90;99.90;;;;;;5057129;28;20072;-79
2022/11/01 08:18:27;;;;;;;0.80;0.70;;;14.80;99.90;;;;;;5059405;28;20087;-80
2022/11/01 08:20:52;;;;;;;0.03;0.03;;;14.80;99.90;;;;;;5059427;28;20041;-80
2022/11/01 08:23:18;;;;;;;0.65;0.43;;;14.80;99.90;;;;;;5059216;28;20041;-79
2022/11/01 08:25:44;;;;;;;0.00;0.00;;;14.80;99.90;;;;;;5048942;28;20047;-78
2022/11/01 08:28:12;;;;;;;0.38;0.38;;;14.90;99.90;;;;;;5047598;28;20048;-79
2022/11/01 08:30:40;;;;;;;1.17;0.68;;;15.40;99.90;;;;;;5046593;28;20037;-78
2022/11/01 08:33:05;;;;;;;0.30;0.22;;;15.00;48.70;;;;;;5046375;28;20052;-80
2022/11/01 08:35:36;;;;;;;4.03;1.95;;;14.90;30.90;;;;;;5044723;28;20041;-79
2022/11/01 08:38:02;;;;;;;0.08;0.08;;;15.00;1.00;;;;;;5047983;28;20080;-80
2022/11/01 08:40:29;;;;;;;1.02;0.82;;;14.90;1.00;;;;;;5049809;28;20041;-79
2022/11/01 08:42:56;;;;;;;0.20;0.20;;;14.90;1.00;;;;;;5049359;28;20595;-81
2022/11/01 08:45:22;;;;;;;3.83;1.95;;;14.80;1.00;;;;;;5048859;28;20035;-78
2022/11/01 08:47:47;;;;;;;0.65;0.40;;;14.70;1.00;;;;;;5049299;28;20605;-80
2022/11/01 08:50:15;;;;;;;0.75;0.47;;;14.60;1.00;;;;;;5049594;28;20127;-77
2022/11/01 08:52:41;;;;;;;3.53;1.15;;;14.70;99.90;;;;;;5056921;28;20045;-80
2022/11/01 08:55:08;;;;;;;0.05;0.05;;;14.80;99.90;;;;;;5056396;28;20097;-81
2022/11/01 08:57:34;;;;;;;2.08;0.47;;;14.80;99.90;;;;;;5048599;28;20091;-77
2022/11/01 09:00:00;;;;;;;0.00;0.00;;;15.00;99.90;;;;;;5047915;28;20057;-78
2022/11/01 09:02:26;;;;;;;0.30;0.30;;;15.20;99.90;;;;;;5048570;28;20565;-81
2022/11/01 09:04:51;;;;;;;1.75;0.70;;;15.30;99.90;;;;;;5049335;28;20048;-78
2022/11/01 09:07:17;;;;;;;2.13;0.47;;;15.50;99.90;;;;;;5049469;28;20053;-78
2022/11/01 09:09:43;;;;;;;3.92;1.45;;;15.40;99.90;;;;;;5048818;28;20044;-79
2022/11/01 09:12:11;;;;;;;0.03;0.03;;;15.40;99.90;;;;;;5050707;28;20129;-78
2022/11/01 09:14:36;;;;;;;0.30;0.20;;;15.40;99.90;;;;;;5054797;28;20048;-79
2022/11/01 09:17:02;;;;;;;1.10;0.55;;;15.30;99.90;;;;;;5060451;28;20041;-80
2022/11/01 09:19:28;;;;;;;0.43;0.35;;;15.20;99.90;;;;;;5062832;28;20048;-79
2022/11/01 09:21:54;;;;;;;3.72;1.02;;;15.50;99.90;;;;;;5061786;28;20045;-80
2022/11/01 09:24:19;;;;;;;0.63;0.35;;;15.20;99.90;;;;;;5062419;28;20068;-79
2022/11/01 09:26:45;;;;;;;0.10;0.10;;;15.00;99.90;;;;;;5058261;28;20041;-79
2022/11/01 09:29:11;;;;;;;0.38;0.30;;;15.00;99.90;;;;;;5031365;28;20450;-79
2022/11/01 09:31:36;;;;;;;1.85;0.73;;;15.70;99.90;;;;;;5029732;28;20052;-78
2022/11/01 09:34:02;;;;;;;4.85;1.17;;;15.00;99.90;;;;;;5029202;28;20041;-79
2022/11/01 09:36:28;;;;;;;0.25;0.25;;;15.10;99.90;;;;;;5028854;28;20050;-79
2022/11/01 09:38:55;;;;;;;11.75;0.82;;;15.30;99.90;;;;;;5028098;28;20076;-78
2022/11/01 09:41:32;;;;;;;0.10;0.10;;;15.40;99.90;;;;;;5028057;28;20168;-79
2022/11/01 09:44:00;;;;;;;8.30;1.75;;;15.40;99.90;;;;;;5028554;28;20052;-79
2022/11/01 09:46:36;;;;;;;0.35;0.32;;;15.70;99.90;;;;;;5028400;28;20045;-79
2022/11/01 09:49:05;;;;;;;2.90;0.65;;;15.40;99.90;;;;;;5028149;28;20127;-80
2022/11/01 09:51:31;;;;;;;0.28;0.17;;;15.60;99.90;;;;;;5027169;28;20131;-77
2022/11/01 09:54:00;;;;;;;0.38;0.25;;;15.30;99.90;;;;;;5027589;28;20100;-79
2022/11/01 09:56:36;;;;;;;6.00;0.88;;;15.30;99.90;;;;;;5027689;28;20415;-79
2022/11/01 09:59:18;;;;;;;0.03;0.03;;;15.30;99.90;;;;;;5027830;28;20049;-81
2022/11/01 10:01:51;;;;;;;0.25;0.20;;;15.30;99.90;;;;;;5027100;28;20415;-79
2022/11/01 10:04:45;;;;;;;0.73;0.70;;;16.00;99.90;;;;;;5027797;28;20492;-81
2022/11/01 10:07:16;;;;;;;0.17;0.17;;;15.30;99.90;;;;;;5029052;28;20124;-79
2022/11/01 10:09:58;;;;;;;0.32;0.28;;;15.30;99.90;;;;;;5028638;28;20045;-79
2022/11/01 10:12:44;;;;;;;2.55;1.13;;;15.30;99.90;;;;;;5028691;28;20128;-78
2022/11/01 10:15:18;;;;;;;1.70;0.52;;;15.30;99.90;;;;;;5011161;28;20053;-79
2022/11/01 10:17:53;;;;;;;0.05;0.05;;;15.40;99.90;;;;;;5028330;28;20393;-79
2022/11/01 10:20:32;;;;;;;2.00;0.70;;;15.60;99.90;;;;;;5028423;28;20053;-78
2022/11/01 10:22:59;;;;;;;1.30;0.32;;;15.80;99.90;;;;;;5027278;28;20072;-79
2022/11/01 10:25:31;;;;;;;1.35;0.43;;;15.80;99.90;;;;;;5008210;28;20697;-79
2022/11/01 10:27:57;;;;;;;0.00;0.00;;;15.80;99.90;;;;;;5036095;28;20045;-79
2022/11/01 10:30:23;;;;;;;0.05;0.05;;;16.00;99.90;;;;;;5045295;28;20064;-79
2022/11/01 10:33:10;;;;;;;0.30;0.30;;;16.40;99.90;;;;;;5045238;28;20504;-79
2022/11/01 10:35:42;;;;;;;0.38;0.38;;;16.20;99.90;;;;;;5044530;28;20123;-78
2022/11/01 10:38:18;;;;;;;0.25;0.20;;;16.10;99.90;;;;;;5044002;28;20491;-79
2022/11/01 10:40:50;;;;;;;;;;;16.20;99.90;;;;;;5045199;28;20388;-80
2022/11/01 10:43:19;;;;;;;0.98;0.47;;;16.30;99.90;;;;;;5044953;28;19924;-80
2022/11/01 10:45:47;;;;;;;0.50;0.40;;;16.30;99.90;;;;;;5044255;28;20049;-80
2022/11/01 10:48:32;;;;;;;0.95;0.75;;;16.40;99.90;;;;;;5044360;28;20120;-80
2022/11/01 10:51:02;;;;;;;1.45;0.63;;;16.30;99.90;;;;;;5043744;28;20067;-79
2022/11/01 10:53:32;;;;;;;1.92;0.98;;;16.20;99.90;;;;;;5043836;28;20060;-80
2022/11/01 10:56:02;;;;;;;0.47;0.40;;;16.00;99.90;;;;;;5044154;28;20055;-79
2022/11/01 10:58:46;;;;;;;0.55;0.50;;;16.00;99.90;;;;;;5035960;28;20050;-80
2022/11/01 11:01:17;;;;;;;0.47;0.45;;;15.90;99.90;;;;;;5024477;28;20123;-80
2022/11/01 11:03:45;;;;;;;3.33;0.10;;;15.90;99.90;;;;;;5023673;28;20580;-79
2022/11/01 11:06:14;;;;;;;0.65;0.60;;;16.10;99.90;;;;;;5035790;28;20067;-79
2022/11/01 11:08:43;;;;;;;3.38;1.33;;;16.10;99.90;;;;;;5044222;28;20175;-79
2022/11/01 11:11:13;;;;;;;0.93;0.77;;;16.20;99.90;;;;;;5044433;28;20495;-80
2022/11/01 11:13:45;;;;;;;0.20;0.20;;;16.40;99.90;;;;;;5046212;28;20056;-79
2022/11/01 11:16:39;;;;;;;1.35;0.50;;;16.00;99.90;;;;;;5046763;28;20061;-80
2022/11/01 11:19:18;;;;;;;0.15;0.13;;;15.80;99.90;;;;;;5049825;28;20064;-79
2022/11/01 11:21:46;;;;;;;1.25;0.57;;;15.80;99.90;;;;;;5062448;28;20074;-79
2022/11/01 11:24:21;;;;;;;0.80;0.35;;;15.90;99.90;;;;;;5060866;28;20063;-78
2022/11/01 11:26:50;;;;;;;1.40;0.93;;;15.90;99.90;;;;;;5062062;28;20041;-78
2022/11/01 11:29:36;;;;;;;0.75;0.70;;;16.00;99.90;;;;;;5062914;28;20096;-78
2022/11/01 11:32:05;;;;;;;0.17;0.15;;;16.20;99.90;;;;;;5063275;28;20064;-79
2022/11/01 11:34:34;;;;;;;0.30;0.30;;;16.40;99.90;;;;;;5061975;28;20494;-80
2022/11/01 11:37:02;;;;;;;0.00;0.00;;;16.30;99.90;;;;;;5053042;28;20053;-79
2022/11/01 11:40:09;;;;;;;1.00;0.93;;;16.40;99.90;;;;;;5048641;28;20048;-79
2022/11/01 11:42:35;;;;;;;0.50;0.40;;;16.60;99.90;;;;;;5031020;28;20045;-77
2022/11/01 11:45:14;;;;;;;1.13;0.70;;;16.90;99.90;;;;;;5055388;28;20079;-81
2022/11/01 11:47:39;;;;;;;0.00;0.00;;;16.70;99.90;;;;;;5056428;28;20051;-79
2022/11/01 11:50:20;;;;;;;1.02;0.98;;;16.60;99.90;;;;;;5064445;28;20049;-78
2022/11/01 11:53:13;;;;;;;0.70;0.70;;;16.80;99.90;;;;;;5056390;28;20052;-79
2022/11/01 11:55:47;;;;;;;4.35;1.55;;;16.90;99.90;;;;;;5033803;28;20054;-80
2022/11/01 11:58:27;;;;;;;0.00;0.00;;;17.30;99.90;;;;;;5028167;28;20132;-80
2022/11/01 12:01:19;;;;;;;0.00;0.00;;;17.20;99.90;;;;;;5025870;28;20064;-79
2022/11/01 12:03:47;;;;;;;0.40;0.40;;;17.20;99.90;;;;;;5044258;28;20041;-80
2022/11/01 12:06:21;;;;;;;0.80;0.50;;;17.30;99.90;;;;;;5043488;28;20106;-77
2022/11/01 12:08:50;;;;;;;0.50;0.20;;;17.40;99.90;;;;;;5024972;28;20908;-77
2022/11/01 12:11:16;;;;;;;8.43;0.60;;;17.30;83.20;;;;;;5024420;28;20045;-77
2022/11/01 12:13:45;;;;;;;0.17;0.17;;;17.20;99.90;;;;;;5028965;28;20487;-79
2022/11/01 12:16:25;;;;;;;0.28;0.28;;;17.20;95.30;;;;;;5026921;28;20055;-79
2022/11/01 12:18:55;;;;;;;0.63;0.45;;;17.40;76.70;;;;;;5046033;28;20047;-78
2022/11/01 12:21:41;;;;;;;0.10;0.03;;;17.50;34.30;;;;;;5047224;28;20041;-79
2022/11/01 12:24:23;;;;;;;0.77;0.70;;;17.60;1.00;;;;;;5046997;28;20407;-78
2022/11/01 12:26:53;;;;;;;0.25;0.10;;;17.50;1.00;;;;;;5029003;28;20295;-78
2022/11/01 12:29:33;;;;;;;2.03;0.77;;;17.50;1.00;;;;;;5047685;28;20118;-80
2022/11/01 12:32:24;;;;;;;0.08;0.08;;;17.50;1.00;;;;;;5046901;28;20286;-80
2022/11/01 12:34:52;;;;;;;2.28;0.65;;;17.50;1.00;;;;;;5047815;28;20041;-79
2022/11/01 12:37:25;;;;;;;0.00;0.00;;;17.60;1.00;;;;;;5048003;28;20498;-81
2022/11/01 12:39:50;;;;;;;0.35;0.35;;;17.70;1.00;;;;;;5038125;28;20059;-80
2022/11/01 12:42:50;;;;;;;0.13;0.13;;;17.80;1.00;;;;;;5038461;28;20040;-79
2022/11/01 12:45:41;;;;;;;0.00;0.00;;;17.90;99.90;;;;;;4989907;28;20053;-78
2022/11/01 12:48:13;;;;;;;1.20;0.35;;;18.00;99.90;;;;;;5028150;28;20046;-80
2022/11/01 12:50:47;;;;;;;2.22;0.95;;;18.20;99.90;;;;;;5042151;28;20048;-79
2022/11/01 12:53:26;;;;;;;0.10;0.10;;;18.10;99.90;;;;;;5047241;28;20045;-80
2022/11/01 12:55:52;;;;;;;0.20;0.10;;;18.20;99.90;;;;;;5048626;28;20072;-80
2022/11/01 12:58:20;;;;;;;0.47;0.30;;;18.20;99.90;;;;;;5048067;28;20083;-80
2022/11/01 13:00:58;;;;;;;0.00;0.00;;;18.40;99.90;;;;;;5047425;28;20057;-80
2022/11/01 13:03:30;;;;;;;0.45;0.40;;;18.30;99.90;;;;;;5047895;28;20490;-78
2022/11/01 13:06:05;;;;;;;1.77;0.65;;;18.10;99.90;;;;;;5047653;28;20473;-80
2022/11/01 13:08:44;;;;;;;0.53;0.53;;;18.10;99.90;;;;;;5047575;28;20040;-79